Time;durP1;ratioP1;P1;durP2;ratioP2;P2;SDS_P1;SDS_P2;PMS_P1;PMS_P2;Temp;Humidity;BMP_temperature;BMP_pressure;BME280_temperature;BME280_humidity;BME280_pressure;Samples;Min_cycle;Max_cycle;Signal;HPM_P1;HPM_P2
2023/09/25 00:00:49;;;;;;;1.70;0.80;;;13.60;99.90;;;;;;4967600;28;20061;-61
2023/09/25 00:03:15;;;;;;;0.65;0.47;;;13.60;99.90;;;;;;4968243;28;20042;-61
2023/09/25 00:05:42;;;;;;;1.27;0.82;;;13.60;99.90;;;;;;4967410;28;20387;-62
2023/09/25 00:08:08;;;;;;;1.13;0.63;;;13.60;99.90;;;;;;4967246;28;20139;-61
2023/09/25 00:10:36;;;;;;;1.50;0.90;;;13.60;99.90;;;;;;4966191;28;20069;-60
2023/09/25 00:13:01;;;;;;;1.42;0.73;;;13.50;99.90;;;;;;4968564;28;20039;-61
2023/09/25 00:15:27;;;;;;;2.42;0.90;;;13.50;99.90;;;;;;4968191;28;20402;-60
2023/09/25 00:17:53;;;;;;;2.97;0.82;;;13.40;99.90;;;;;;4968782;28;20444;-61
2023/09/25 00:20:24;;;;;;;5.15;0.90;;;13.40;99.90;;;;;;4967419;28;20507;-62
2023/09/25 00:22:55;;;;;;;1.45;0.80;;;13.40;99.90;;;;;;4968465;28;20110;-60
2023/09/25 00:25:23;;;;;;;3.03;0.88;;;13.30;99.90;;;;;;4950717;28;20077;-61
2023/09/25 00:27:49;;;;;;;1.30;0.77;;;13.20;99.90;;;;;;4951060;28;20043;-61
2023/09/25 00:30:15;;;;;;;1.42;0.50;;;13.20;99.90;;;;;;4950943;28;20047;-60
2023/09/25 00:32:41;;;;;;;2.13;0.93;;;13.10;99.90;;;;;;4966490;28;20050;-61
2023/09/25 00:35:09;;;;;;;1.55;0.70;;;13.10;99.90;;;;;;4966799;28;20046;-62
2023/09/25 00:37:37;;;;;;;3.97;1.10;;;13.00;99.90;;;;;;4950456;28;20058;-61
2023/09/25 00:40:18;;;;;;;1.92;0.88;;;13.10;99.90;;;;;;4966466;28;20055;-61
2023/09/25 00:42:49;;;;;;;1.10;0.70;;;13.10;99.90;;;;;;4966825;28;20051;-61
2023/09/25 00:45:15;;;;;;;2.75;1.08;;;13.10;99.90;;;;;;5051143;28;20043;-60
2023/09/25 00:47:43;;;;;;;1.35;0.60;;;13.00;99.90;;;;;;4968113;28;20031;-61
2023/09/25 00:50:09;;;;;;;1.55;1.00;;;13.10;99.90;;;;;;5051692;28;20066;-61
2023/09/25 00:52:39;;;;;;;1.73;0.80;;;13.00;99.90;;;;;;4982112;28;20046;-61
2023/09/25 00:55:05;;;;;;;;;;;13.10;99.90;;;;;;4967163;28;20062;-61
2023/09/25 00:57:34;;;;;;;1.98;0.98;;;13.00;99.90;;;;;;4966812;28;19922;-61
2023/09/25 01:00:02;;;;;;;3.38;1.05;;;13.00;99.90;;;;;;4966264;28;20052;-61
2023/09/25 01:02:31;;;;;;;1.80;0.88;;;13.00;99.90;;;;;;4966867;28;20054;-61
2023/09/25 01:05:06;;;;;;;1.50;0.63;;;13.00;99.90;;;;;;4967944;28;20092;-61
2023/09/25 01:07:32;;;;;;;4.53;1.17;;;13.00;99.90;;;;;;4966140;28;20527;-61
2023/09/25 01:10:13;;;;;;;1.75;0.80;;;13.00;99.90;;;;;;4967918;28;20059;-60
2023/09/25 01:12:39;;;;;;;1.63;0.88;;;12.90;99.90;;;;;;4966482;28;20050;-60
2023/09/25 01:15:05;;;;;;;2.13;1.02;;;12.80;99.90;;;;;;4967643;28;20035;-61
2023/09/25 01:17:32;;;;;;;2.65;1.30;;;12.80;99.90;;;;;;4982733;28;20113;-60
2023/09/25 01:19:59;;;;;;;4.75;1.42;;;12.80;99.90;;;;;;4981992;28;20598;-64
2023/09/25 01:22:25;;;;;;;4.32;1.05;;;12.80;99.90;;;;;;4966737;28;20047;-63
2023/09/25 01:24:52;;;;;;;1.70;0.88;;;12.80;99.90;;;;;;4966658;28;20081;-61
2023/09/25 01:27:18;;;;;;;2.13;0.93;;;12.80;99.90;;;;;;4966060;28;20076;-61
2023/09/25 01:29:43;;;;;;;3.35;1.33;;;12.70;99.90;;;;;;4966402;28;20117;-60
2023/09/25 01:32:09;;;;;;;2.15;1.02;;;12.70;99.90;;;;;;4966429;28;20043;-63
2023/09/25 01:34:35;;;;;;;2.65;0.93;;;12.60;99.90;;;;;;4966734;28;20133;-61
2023/09/25 01:37:13;;;;;;;2.78;1.10;;;12.60;99.90;;;;;;4968274;28;20126;-61
2023/09/25 01:39:39;;;;;;;2.00;1.25;;;12.60;99.90;;;;;;4965957;28;20054;-60
2023/09/25 01:42:06;;;;;;;2.78;1.40;;;12.60;99.90;;;;;;5050830;28;20069;-60
2023/09/25 01:44:32;;;;;;;0.85;0.75;;;12.60;99.90;;;;;;4966170;28;20039;-63
2023/09/25 01:46:58;;;;;;;2.35;1.13;;;12.60;99.90;;;;;;4969508;28;20046;-61
2023/09/25 01:49:24;;;;;;;1.80;0.98;;;12.50;99.90;;;;;;4970124;28;20433;-60
2023/09/25 01:51:50;;;;;;;1.75;0.77;;;12.50;99.90;;;;;;4970638;28;20031;-60
2023/09/25 01:54:16;;;;;;;5.20;1.05;;;12.50;99.90;;;;;;4969252;28;20474;-62
2023/09/25 01:56:45;;;;;;;2.47;1.30;;;12.50;99.90;;;;;;4970020;28;20043;-61
2023/09/25 01:59:11;;;;;;;2.95;0.90;;;12.50;99.90;;;;;;4969459;28;20103;-60
2023/09/25 02:01:38;;;;;;;1.35;1.00;;;12.50;99.90;;;;;;4968856;28;20050;-62
2023/09/25 02:04:05;;;;;;;1.65;1.17;;;12.50;99.90;;;;;;4968386;28;20046;-60
2023/09/25 02:06:30;;;;;;;1.58;0.80;;;12.50;99.90;;;;;;4950522;28;20570;-61
2023/09/25 02:08:56;;;;;;;1.02;0.65;;;12.50;99.90;;;;;;4949348;29;20055;-62
2023/09/25 02:11:22;;;;;;;1.55;0.80;;;12.50;99.90;;;;;;4934147;28;20042;-61
2023/09/25 02:13:48;;;;;;;2.55;1.08;;;12.50;99.90;;;;;;4951003;28;20040;-60
2023/09/25 02:16:14;;;;;;;2.78;0.93;;;12.50;99.90;;;;;;4949939;28;20411;-61
2023/09/25 02:18:40;;;;;;;1.27;0.80;;;12.50;99.90;;;;;;4950884;28;20043;-60
2023/09/25 02:21:07;;;;;;;1.27;0.85;;;12.50;99.90;;;;;;4950029;29;20250;-62
2023/09/25 02:23:33;;;;;;;3.63;1.50;;;12.50;99.90;;;;;;4950496;28;20040;-61
2023/09/25 02:25:59;;;;;;;4.10;1.10;;;12.50;99.90;;;;;;4933780;29;20054;-60
2023/09/25 02:28:25;;;;;;;1.83;1.48;;;12.50;99.90;;;;;;4965544;28;20042;-61
2023/09/25 02:30:51;;;;;;;1.88;1.25;;;12.50;99.90;;;;;;4968354;28;20047;-61
2023/09/25 02:33:18;;;;;;;2.35;1.00;;;12.50;99.90;;;;;;4968898;28;20062;-61
2023/09/25 02:35:44;;;;;;;5.57;1.48;;;12.50;99.90;;;;;;4969981;28;20042;-61
2023/09/25 02:38:10;;;;;;;2.10;1.10;;;12.50;99.90;;;;;;4967793;28;20078;-60
2023/09/25 02:40:36;;;;;;;2.25;1.20;;;12.50;99.90;;;;;;4968588;28;20471;-60
2023/09/25 02:43:02;;;;;;;3.50;1.42;;;12.50;99.90;;;;;;4968857;28;20118;-59
2023/09/25 02:45:28;;;;;;;2.25;1.05;;;12.50;99.90;;;;;;4968367;28;20046;-59
2023/09/25 02:47:55;;;;;;;3.72;1.02;;;12.50;99.90;;;;;;4969855;28;20041;-61
2023/09/25 02:50:20;;;;;;;2.22;0.93;;;12.40;99.90;;;;;;4968560;28;20184;-60
2023/09/25 02:52:46;;;;;;;1.70;1.05;;;12.40;99.90;;;;;;4968331;28;20076;-60
2023/09/25 02:55:13;;;;;;;2.72;0.82;;;12.40;99.90;;;;;;4970596;28;20043;-63
2023/09/25 02:57:39;;;;;;;2.08;0.98;;;12.40;99.90;;;;;;4968229;28;20070;-59
2023/09/25 03:00:10;;;;;;;3.03;1.58;;;12.40;99.90;;;;;;4969662;28;20078;-61
2023/09/25 03:02:40;;;;;;;3.70;1.73;;;12.40;99.90;;;;;;4951567;28;20043;-60
2023/09/25 03:05:06;;;;;;;;;;;12.40;99.90;;;;;;4949180;29;20145;-60
2023/09/25 03:07:32;;;;;;;8.10;1.20;;;12.40;99.90;;;;;;4949028;29;20414;-60
2023/09/25 03:09:58;;;;;;;2.00;1.08;;;12.40;99.90;;;;;;4949184;28;20126;-60
2023/09/25 03:12:24;;;;;;;3.75;1.08;;;12.40;99.90;;;;;;4949828;28;20573;-62
2023/09/25 03:14:50;;;;;;;2.00;1.08;;;12.30;99.90;;;;;;4948959;29;20047;-60
2023/09/25 03:17:16;;;;;;;2.22;1.23;;;12.30;99.90;;;;;;4948342;29;20051;-60
2023/09/25 03:19:42;;;;;;;3.33;1.98;;;12.30;99.90;;;;;;4947684;29;20047;-61
2023/09/25 03:22:08;;;;;;;2.40;1.15;;;12.30;99.90;;;;;;4950042;28;20047;-60
2023/09/25 03:24:35;;;;;;;1.35;0.90;;;12.30;99.90;;;;;;4963847;28;20038;-60
2023/09/25 03:27:01;;;;;;;4.95;1.42;;;12.30;99.90;;;;;;4967613;28;20049;-60
2023/09/25 03:29:27;;;;;;;2.65;0.90;;;12.30;99.90;;;;;;4968357;28;20426;-60
2023/09/25 03:31:53;;;;;;;1.50;0.70;;;12.30;99.90;;;;;;4967809;28;20103;-60
2023/09/25 03:34:20;;;;;;;2.00;1.13;;;12.30;99.90;;;;;;4967248;28;20099;-60
2023/09/25 03:36:46;;;;;;;1.83;1.05;;;12.30;99.90;;;;;;4967868;28;20043;-61
2023/09/25 03:39:12;;;;;;;1.10;0.70;;;12.30;99.90;;;;;;4968921;28;20055;-60
2023/09/25 03:41:38;;;;;;;2.38;1.08;;;12.20;99.90;;;;;;4967357;28;20050;-59
2023/09/25 03:44:04;;;;;;;1.70;1.13;;;12.20;99.90;;;;;;4967918;28;20043;-60
2023/09/25 03:46:30;;;;;;;1.55;0.98;;;12.20;99.90;;;;;;4967641;28;20050;-59
2023/09/25 03:48:56;;;;;;;3.90;1.55;;;12.20;99.90;;;;;;4967136;28;20043;-61
2023/09/25 03:51:22;;;;;;;4.60;1.27;;;12.20;99.90;;;;;;4967854;28;20176;-61
2023/09/25 03:53:48;;;;;;;2.40;0.93;;;12.20;99.90;;;;;;4968108;28;20046;-63
2023/09/25 03:56:15;;;;;;;6.72;1.38;;;12.20;99.90;;;;;;4967754;28;20180;-61
2023/09/25 03:58:41;;;;;;;4.38;1.40;;;12.30;99.90;;;;;;4953088;28;20058;-60
2023/09/25 04:01:07;;;;;;;2.10;1.20;;;12.20;99.90;;;;;;4947775;29;20096;-61
2023/09/25 04:03:33;;;;;;;1.95;1.08;;;12.20;99.90;;;;;;4948482;29;20032;-62
2023/09/25 04:05:59;;;;;;;3.33;1.00;;;12.20;99.90;;;;;;4948171;29;20568;-63
2023/09/25 04:08:25;;;;;;;3.17;1.42;;;12.20;99.90;;;;;;4947457;29;20081;-61
2023/09/25 04:10:51;;;;;;;1.95;1.00;;;12.10;99.90;;;;;;4948615;29;20083;-60
2023/09/25 04:13:18;;;;;;;2.80;1.17;;;12.10;99.90;;;;;;4950082;28;20388;-64
2023/09/25 04:15:44;;;;;;;2.85;0.93;;;12.10;99.90;;;;;;4948917;28;20047;-60
2023/09/25 04:18:12;;;;;;;1.13;0.95;;;12.10;99.90;;;;;;4949295;28;20043;-60
2023/09/25 04:20:38;;;;;;;3.00;1.70;;;12.10;99.90;;;;;;4960634;28;20134;-61
2023/09/25 04:23:05;;;;;;;3.92;1.42;;;12.10;99.90;;;;;;4966652;28;20035;-61
2023/09/25 04:25:31;;;;;;;2.38;0.98;;;12.10;99.90;;;;;;4967291;28;20089;-63
2023/09/25 04:27:57;;;;;;;2.25;1.23;;;12.10;99.90;;;;;;4967057;28;20050;-61
2023/09/25 04:30:23;;;;;;;2.80;1.17;;;12.10;99.90;;;;;;4950423;28;20046;-61
2023/09/25 04:32:56;;;;;;;2.15;1.27;;;12.10;99.90;;;;;;4967384;28;20042;-61
2023/09/25 04:35:23;;;;;;;1.92;1.17;;;12.10;99.90;;;;;;4967192;28;20050;-60
2023/09/25 04:37:50;;;;;;;2.75;1.23;;;12.10;99.90;;;;;;4966804;28;20039;-60
2023/09/25 04:42:47;;;;;;;1.42;0.98;;;12.10;99.90;;;;;;4966370;28;20046;-61
2023/09/25 04:45:16;;;;;;;1.67;1.17;;;12.10;99.90;;;;;;4968182;28;20558;-63
2023/09/25 04:47:42;;;;;;;1.85;1.00;;;12.10;99.90;;;;;;4951127;28;20078;-60
2023/09/25 04:50:10;;;;;;;1.08;0.98;;;12.10;99.90;;;;;;4967578;28;20039;-61
2023/09/25 04:52:40;;;;;;;2.17;1.13;;;12.10;99.90;;;;;;4966432;28;20047;-63
2023/09/25 04:55:10;;;;;;;5.00;1.67;;;12.10;99.90;;;;;;4949872;28;20543;-60
2023/09/25 04:57:38;;;;;;;2.25;1.20;;;12.20;99.90;;;;;;4948420;28;20043;-60
2023/09/25 05:00:25;;;;;;;1.65;1.10;;;12.10;99.90;;;;;;4947358;29;20511;-61
2023/09/25 05:02:52;;;;;;;1.35;0.80;;;12.20;99.90;;;;;;4947729;29;20575;-60
2023/09/25 05:05:19;;;;;;;1.58;1.02;;;12.10;99.90;;;;;;4947223;28;20443;-62
2023/09/25 05:07:50;;;;;;;1.92;0.80;;;12.10;99.90;;;;;;4947530;29;20047;-60
2023/09/25 05:10:18;;;;;;;2.70;0.77;;;12.10;99.90;;;;;;4947484;29;20075;-60
2023/09/25 05:12:45;;;;;;;2.58;1.13;;;12.20;99.90;;;;;;4946978;29;20490;-61
2023/09/25 05:15:12;;;;;;;2.85;1.23;;;12.20;99.90;;;;;;4948672;28;20364;-61
2023/09/25 05:17:39;;;;;;;3.17;0.90;;;12.20;99.90;;;;;;4946703;29;20044;-62
2023/09/25 05:20:15;;;;;;;1.67;1.00;;;12.20;99.90;;;;;;4947385;28;20131;-61
2023/09/25 05:22:48;;;;;;;1.73;0.95;;;12.20;99.90;;;;;;4949912;28;20065;-62
2023/09/25 05:25:15;;;;;;;1.35;0.75;;;12.20;99.90;;;;;;4949418;28;20039;-60
2023/09/25 05:27:43;;;;;;;1.40;0.70;;;12.20;99.90;;;;;;4951015;28;20142;-61
2023/09/25 05:30:10;;;;;;;1.55;0.90;;;12.20;99.90;;;;;;4935683;29;20054;-61
2023/09/25 05:32:45;;;;;;;1.95;1.05;;;12.20;99.90;;;;;;4950513;28;20671;-60
2023/09/25 05:35:11;;;;;;;2.35;1.25;;;12.20;99.90;;;;;;4959650;28;20078;-60
2023/09/25 05:37:38;;;;;;;1.40;0.90;;;12.20;99.90;;;;;;4969726;28;20043;-61
2023/09/25 05:40:05;;;;;;;0.98;0.70;;;12.20;99.90;;;;;;4970088;28;20051;-61
2023/09/25 05:42:31;;;;;;;1.70;0.70;;;12.20;99.90;;;;;;4969573;28;20051;-62
2023/09/25 05:44:58;;;;;;;2.05;0.50;;;12.20;99.90;;;;;;4969788;28;20035;-60
2023/09/25 05:47:24;;;;;;;3.83;0.93;;;12.20;99.90;;;;;;4968888;28;20042;-63
2023/09/25 05:49:50;;;;;;;1.98;0.85;;;12.20;99.90;;;;;;4970561;28;20039;-61
2023/09/25 05:52:17;;;;;;;4.22;1.30;;;12.20;99.90;;;;;;4970624;28;20053;-61
2023/09/25 05:54:43;;;;;;;1.60;0.70;;;12.20;99.90;;;;;;4969945;28;20039;-61
2023/09/25 05:57:09;;;;;;;2.15;1.20;;;12.20;99.90;;;;;;4953560;28;20470;-60
2023/09/25 05:59:35;;;;;;;1.10;0.75;;;12.20;99.90;;;;;;4968943;28;20074;-61
2023/09/25 06:02:02;;;;;;;3.13;1.20;;;12.20;99.90;;;;;;4969273;28;20121;-60
2023/09/25 06:04:29;;;;;;;2.95;0.90;;;12.30;99.90;;;;;;4968774;28;20061;-61
2023/09/25 06:06:55;;;;;;;1.23;0.93;;;12.20;99.90;;;;;;4968619;28;20039;-59
2023/09/25 06:09:22;;;;;;;4.47;1.42;;;12.30;99.90;;;;;;4969190;28;20047;-60
2023/09/25 06:11:49;;;;;;;0.95;0.68;;;12.30;99.90;;;;;;4970588;28;20058;-61
2023/09/25 06:14:15;;;;;;;0.60;0.35;;;12.30;99.90;;;;;;4968804;28;20042;-61
2023/09/25 06:16:41;;;;;;;2.78;0.80;;;12.30;99.90;;;;;;4968838;28;20735;-63
2023/09/25 06:19:12;;;;;;;1.52;0.98;;;12.30;99.90;;;;;;4968698;28;20533;-60
2023/09/25 06:21:38;;;;;;;1.92;1.10;;;12.40;99.90;;;;;;4968144;28;20031;-61
2023/09/25 06:24:09;;;;;;;3.53;1.02;;;12.40;99.90;;;;;;4969105;28;20541;-60
2023/09/25 06:26:39;;;;;;;1.75;1.15;;;12.50;99.90;;;;;;4969455;28;20125;-60
2023/09/25 06:29:09;;;;;;;3.17;0.93;;;12.60;99.90;;;;;;4968592;28;20430;-60
2023/09/25 06:31:39;;;;;;;1.42;0.95;;;12.60;99.90;;;;;;4968884;28;20122;-60
2023/09/25 06:34:09;;;;;;;0.77;0.30;;;12.70;99.90;;;;;;4969934;28;20047;-60
2023/09/25 06:36:36;;;;;;;1.52;0.63;;;12.70;99.90;;;;;;4968562;28;20077;-61
2023/09/25 06:39:09;;;;;;;2.30;0.80;;;12.70;99.90;;;;;;4969663;28;20059;-59
2023/09/25 06:41:37;;;;;;;1.58;0.57;;;12.70;99.90;;;;;;4968307;28;20058;-63
2023/09/25 06:44:06;;;;;;;1.00;0.52;;;12.70;99.90;;;;;;4952931;28;20514;-62
2023/09/25 06:46:33;;;;;;;2.22;0.90;;;12.80;99.90;;;;;;4969044;28;20539;-62
2023/09/25 06:49:03;;;;;;;0.95;0.57;;;12.90;99.90;;;;;;4968917;28;20097;-60
2023/09/25 06:51:29;;;;;;;2.72;0.95;;;12.90;99.90;;;;;;4968975;28;20514;-62
2023/09/25 06:53:56;;;;;;;1.08;0.80;;;13.00;99.90;;;;;;4968628;28;20050;-60
2023/09/25 06:56:22;;;;;;;1.42;1.00;;;13.00;99.90;;;;;;4968037;28;20107;-60
2023/09/25 06:58:48;;;;;;;1.42;0.82;;;13.10;99.90;;;;;;4969518;28;20152;-60
2023/09/25 07:01:14;;;;;;;2.90;1.17;;;13.10;99.90;;;;;;4969935;28;20070;-60
2023/09/25 07:03:40;;;;;;;2.67;1.00;;;13.20;99.90;;;;;;4969338;28;20042;-61
2023/09/25 07:06:07;;;;;;;0.70;0.47;;;13.20;99.90;;;;;;4968724;28;20045;-61
2023/09/25 07:08:33;;;;;;;1.05;0.70;;;13.30;99.90;;;;;;4966176;28;20050;-59
2023/09/25 07:11:00;;;;;;;1.75;0.98;;;13.30;99.90;;;;;;4968873;28;20053;-61
2023/09/25 07:13:27;;;;;;;2.90;0.68;;;13.30;99.90;;;;;;4968110;28;20093;-60
2023/09/25 07:16:06;;;;;;;2.25;0.70;;;13.40;99.90;;;;;;4967502;28;20043;-60
2023/09/25 07:18:32;;;;;;;1.65;1.10;;;13.50;99.90;;;;;;4967575;28;20047;-61
2023/09/25 07:20:58;;;;;;;2.45;0.75;;;13.50;99.90;;;;;;4967899;28;20050;-60
2023/09/25 07:23:24;;;;;;;1.95;1.15;;;13.60;99.90;;;;;;4968294;28;20043;-59
2023/09/25 07:25:58;;;;;;;2.15;0.73;;;13.60;99.90;;;;;;4967377;28;20560;-64
2023/09/25 07:28:23;;;;;;;1.05;0.50;;;13.70;99.90;;;;;;4953013;28;20074;-60
2023/09/25 07:30:50;;;;;;;0.60;0.50;;;13.70;99.90;;;;;;4947700;29;20044;-61
2023/09/25 07:33:16;;;;;;;1.08;0.50;;;13.80;99.90;;;;;;4948531;29;20126;-60
2023/09/25 07:35:43;;;;;;;1.60;0.80;;;13.80;99.90;;;;;;4949992;29;20189;-61
2023/09/25 07:38:09;;;;;;;2.33;1.13;;;13.90;99.90;;;;;;4948023;28;20043;-60
2023/09/25 07:40:35;;;;;;;1.80;0.80;;;14.00;99.90;;;;;;4932447;29;20047;-62
2023/09/25 07:43:01;;;;;;;1.55;0.77;;;14.00;99.90;;;;;;4959944;28;20108;-60
2023/09/25 07:45:27;;;;;;;1.48;0.70;;;14.10;99.90;;;;;;4966618;28;20038;-60
2023/09/25 07:47:54;;;;;;;1.52;0.80;;;14.10;99.90;;;;;;4969032;28;20042;-60
2023/09/25 07:50:24;;;;;;;0.63;0.55;;;14.20;99.90;;;;;;4967824;28;20051;-60
2023/09/25 07:52:54;;;;;;;0.80;0.57;;;14.30;99.90;;;;;;4967026;28;20046;-60
2023/09/25 07:55:21;;;;;;;3.13;0.75;;;14.30;99.90;;;;;;4967769;28;20047;-61
2023/09/25 07:57:47;;;;;;;1.23;0.68;;;14.50;99.90;;;;;;4967528;28;20091;-61
2023/09/25 08:00:36;;;;;;;1.30;0.93;;;14.60;99.90;;;;;;4967024;28;20062;-60
2023/09/25 08:03:03;;;;;;;4.28;1.00;;;14.70;99.90;;;;;;4967753;28;20096;-63
2023/09/25 08:05:29;;;;;;;1.33;0.80;;;14.90;99.90;;;;;;4951830;28;20051;-60
2023/09/25 08:07:54;;;;;;;1.23;0.75;;;15.00;99.90;;;;;;4967820;28;20038;-62
2023/09/25 08:10:20;;;;;;;1.30;0.70;;;15.10;99.90;;;;;;4969260;28;20049;-62
2023/09/25 08:12:46;;;;;;;1.80;0.60;;;15.20;99.90;;;;;;4966619;28;20051;-60
2023/09/25 08:15:13;;;;;;;1.50;0.70;;;15.40;99.90;;;;;;4967209;28;20562;-60
2023/09/25 08:17:43;;;;;;;0.70;0.55;;;15.70;99.90;;;;;;4968551;28;20037;-62
2023/09/25 08:20:22;;;;;;;1.50;0.70;;;15.90;99.90;;;;;;4968115;28;20360;-60
2023/09/25 08:22:52;;;;;;;0.80;0.50;;;16.10;99.90;;;;;;4967497;28;20383;-60
2023/09/25 08:25:18;;;;;;;4.40;0.98;;;16.30;99.90;;;;;;4947911;29;20050;-61
2023/09/25 08:27:45;;;;;;;1.40;0.40;;;16.50;99.90;;;;;;4947354;28;20045;-61
2023/09/25 08:30:12;;;;;;;1.60;0.80;;;16.50;99.90;;;;;;4947918;28;20051;-59
2023/09/25 08:32:38;;;;;;;0.30;0.25;;;16.50;99.90;;;;;;4946958;28;20488;-59
2023/09/25 08:35:05;;;;;;;2.03;0.90;;;16.50;99.90;;;;;;4948455;28;20491;-60
2023/09/25 08:37:31;;;;;;;2.42;0.80;;;16.60;99.90;;;;;;4947728;28;20054;-60
2023/09/25 08:39:57;;;;;;;0.65;0.40;;;16.80;99.90;;;;;;4963073;28;20063;-60
2023/09/25 08:42:24;;;;;;;1.58;1.05;;;16.80;99.90;;;;;;4967385;28;20089;-60
2023/09/25 08:44:52;;;;;;;6.22;0.68;;;16.80;99.90;;;;;;4968208;28;20034;-60
2023/09/25 08:47:21;;;;;;;1.02;0.57;;;16.70;99.90;;;;;;4968178;28;20545;-60
2023/09/25 08:49:51;;;;;;;2.03;0.77;;;16.70;99.90;;;;;;4966518;28;20440;-60
2023/09/25 08:52:20;;;;;;;1.83;0.50;;;16.80;99.90;;;;;;4950448;28;20059;-59
2023/09/25 08:54:48;;;;;;;1.52;0.55;;;16.90;99.90;;;;;;4965742;28;20101;-61
2023/09/25 08:57:15;;;;;;;1.60;0.50;;;17.30;99.90;;;;;;4974092;28;20089;-59
2023/09/25 08:59:46;;;;;;;1.55;0.50;;;17.50;99.90;;;;;;4973674;28;20483;-59
2023/09/25 09:02:13;;;;;;;1.15;0.52;;;17.50;99.90;;;;;;4975218;28;20050;-62
2023/09/25 09:04:39;;;;;;;2.25;0.65;;;17.40;99.90;;;;;;4974957;28;20058;-60
2023/09/25 09:07:05;;;;;;;1.13;0.68;;;17.30;99.90;;;;;;4974557;28;20055;-62
2023/09/25 09:09:32;;;;;;;1.95;0.60;;;17.30;99.90;;;;;;4974425;28;20078;-60
2023/09/25 09:11:58;;;;;;;0.85;0.50;;;17.50;99.90;;;;;;4976829;28;20525;-60
2023/09/25 09:14:42;;;;;;;1.35;0.63;;;17.80;99.90;;;;;;4960236;28;20034;-61
2023/09/25 09:17:11;;;;;;;0.95;0.60;;;18.00;99.90;;;;;;4974965;28;20043;-59
2023/09/25 09:19:52;;;;;;;1.10;0.67;;;18.30;99.90;;;;;;4976476;28;20042;-60
2023/09/25 09:22:21;;;;;;;1.30;0.63;;;18.70;99.90;;;;;;4975746;28;20352;-60
2023/09/25 09:24:56;;;;;;;2.10;0.80;;;18.90;99.90;;;;;;4975705;28;20043;-59
2023/09/25 09:27:24;;;;;;;1.38;0.45;;;19.20;99.90;;;;;;4960389;28;20034;-59
2023/09/25 09:29:56;;;;;;;0.93;0.50;;;19.60;99.90;;;;;;4976513;28;20042;-60
2023/09/25 09:32:22;;;;;;;1.20;0.70;;;19.90;99.90;;;;;;4975336;28;20497;-59
2023/09/25 09:34:48;;;;;;;1.35;0.65;;;20.20;99.90;;;;;;4976597;28;20038;-61
2023/09/25 09:37:14;;;;;;;1.08;0.43;;;20.20;99.90;;;;;;4954057;28;20041;-60
2023/09/25 09:39:45;;;;;;;1.73;1.02;;;20.30;99.90;;;;;;4975092;28;20588;-60
2023/09/25 09:42:14;;;;;;;0.95;0.50;;;20.30;99.90;;;;;;4976686;28;20426;-60
2023/09/25 09:44:41;;;;;;;0.93;0.52;;;20.20;99.90;;;;;;4974317;28;20050;-62
2023/09/25 09:47:07;;;;;;;1.13;0.50;;;20.20;99.90;;;;;;4975003;28;20043;-64
2023/09/25 09:49:39;;;;;;;2.30;0.93;;;20.60;99.90;;;;;;4975811;28;20446;-63
2023/09/25 09:52:05;;;;;;;1.77;0.95;;;21.10;99.90;;;;;;4975178;28;20053;-63
2023/09/25 09:54:36;;;;;;;1.25;0.50;;;21.20;99.90;;;;;;4974874;28;20042;-63
2023/09/25 09:57:02;;;;;;;2.63;0.85;;;21.30;99.90;;;;;;4975477;28;20065;-62
2023/09/25 09:59:28;;;;;;;1.65;0.45;;;21.20;99.90;;;;;;4974970;28;20047;-62
2023/09/25 10:01:57;;;;;;;0.95;0.40;;;21.40;99.90;;;;;;4974540;28;20570;-62
2023/09/25 10:04:23;;;;;;;2.85;0.52;;;21.70;99.90;;;;;;4974214;28;20050;-63
2023/09/25 10:06:53;;;;;;;0.90;0.43;;;22.20;99.90;;;;;;4974339;28;20042;-63
2023/09/25 10:09:20;;;;;;;0.57;0.30;;;22.40;99.90;;;;;;4976439;28;20038;-63
2023/09/25 10:11:48;;;;;;;0.57;0.25;;;22.50;99.90;;;;;;4974701;28;20070;-64
2023/09/25 10:14:21;;;;;;;3.65;0.68;;;22.30;99.90;;;;;;4973835;28;20594;-63
2023/09/25 10:17:02;;;;;;;0.65;0.28;;;22.20;99.90;;;;;;4973881;28;20034;-63
2023/09/25 10:19:37;;;;;;;1.38;0.40;;;22.00;99.90;;;;;;4974090;28;20043;-64
2023/09/25 10:22:10;;;;;;;0.43;0.25;;;21.90;99.90;;;;;;4974807;28;20067;-62
2023/09/25 10:24:37;;;;;;;0.90;0.43;;;21.70;99.90;;;;;;4958715;28;20038;-63
2023/09/25 10:27:04;;;;;;;2.35;0.80;;;21.70;99.90;;;;;;4973954;28;20042;-63
2023/09/25 10:29:30;;;;;;;1.58;0.50;;;21.70;99.90;;;;;;4959810;28;20047;-64
2023/09/25 10:31:57;;;;;;;0.88;0.45;;;22.20;99.90;;;;;;4974795;28;20475;-63
2023/09/25 10:34:25;;;;;;;0.65;0.38;;;22.60;99.90;;;;;;4974473;28;20046;-63
2023/09/25 10:37:00;;;;;;;1.58;0.43;;;22.80;99.90;;;;;;4974947;28;20046;-63
2023/09/25 10:39:30;;;;;;;1.63;0.70;;;22.60;99.90;;;;;;4972584;28;20541;-62
2023/09/25 10:42:09;;;;;;;0.80;0.52;;;22.50;99.50;;;;;;4975463;28;20482;-64
2023/09/25 10:44:36;;;;;;;1.35;0.65;;;22.30;99.80;;;;;;4975447;28;20034;-62
2023/09/25 10:47:06;;;;;;;1.88;0.38;;;22.20;99.90;;;;;;4959024;28;20133;-64
2023/09/25 10:49:35;;;;;;;2.30;0.60;;;22.30;99.90;;;;;;4974374;28;20074;-62
2023/09/25 10:52:01;;;;;;;1.17;0.50;;;22.40;99.90;;;;;;4973762;28;20050;-64
2023/09/25 10:54:27;;;;;;;1.92;0.63;;;22.60;99.90;;;;;;4972270;28;20038;-63
2023/09/25 10:56:53;;;;;;;0.82;0.43;;;22.80;99.90;;;;;;4973518;28;20034;-62
2023/09/25 10:59:20;;;;;;;3.65;0.60;;;22.80;99.90;;;;;;4974497;28;20077;-63
2023/09/25 11:01:48;;;;;;;1.33;0.45;;;22.60;99.30;;;;;;4974288;28;20062;-62
2023/09/25 11:04:14;;;;;;;1.63;0.40;;;22.30;99.90;;;;;;4973415;28;20043;-63
2023/09/25 11:06:40;;;;;;;1.50;0.52;;;22.20;99.80;;;;;;4973566;28;20050;-63
2023/09/25 11:09:13;;;;;;;1.52;0.65;;;22.00;99.70;;;;;;4973984;28;20046;-63
2023/09/25 11:11:40;;;;;;;2.00;0.55;;;22.00;99.80;;;;;;4973811;28;20047;-61
2023/09/25 11:14:07;;;;;;;1.05;0.55;;;22.10;99.90;;;;;;4975805;28;20073;-60
2023/09/25 11:16:34;;;;;;;1.10;0.40;;;22.10;99.90;;;;;;4973676;28;20070;-61
2023/09/25 11:19:10;;;;;;;3.00;0.88;;;22.30;99.90;;;;;;4956446;28;20046;-60
2023/09/25 11:21:37;;;;;;;1.52;0.68;;;22.30;98.80;;;;;;4973660;28;20057;-60
2023/09/25 11:24:10;;;;;;;2.50;0.38;;;22.20;99.50;;;;;;4973331;28;20044;-60
2023/09/25 11:26:40;;;;;;;1.20;0.60;;;22.20;99.30;;;;;;4974961;28;20050;-60
2023/09/25 11:29:10;;;;;;;2.08;0.77;;;22.20;99.70;;;;;;4974881;28;20440;-60
2023/09/25 11:31:37;;;;;;;0.80;0.52;;;22.30;99.90;;;;;;4974611;28;20595;-60
2023/09/25 11:34:03;;;;;;;2.25;0.70;;;22.30;99.90;;;;;;4973665;28;20050;-60
2023/09/25 11:36:30;;;;;;;1.73;0.50;;;22.40;99.20;;;;;;4973464;28;20528;-60
2023/09/25 11:38:57;;;;;;;1.60;0.50;;;22.20;99.40;;;;;;4956715;28;20054;-59
2023/09/25 11:41:23;;;;;;;1.88;0.45;;;22.20;99.50;;;;;;4972485;28;20441;-59
2023/09/25 11:43:49;;;;;;;1.33;0.30;;;22.10;99.10;;;;;;4973404;28;20042;-60
2023/09/25 11:46:15;;;;;;;2.13;0.68;;;22.00;99.20;;;;;;4972374;28;20470;-59
2023/09/25 11:48:41;;;;;;;2.03;0.52;;;21.90;99.60;;;;;;4973418;28;20062;-60
2023/09/25 11:51:08;;;;;;;0.40;0.25;;;21.90;99.80;;;;;;4972410;28;20412;-59
2023/09/25 11:53:33;;;;;;;1.00;0.60;;;21.90;99.70;;;;;;4974602;28;20414;-61
2023/09/25 11:55:59;;;;;;;1.08;0.43;;;22.10;99.50;;;;;;4972854;28;20050;-59
2023/09/25 11:58:28;;;;;;;1.05;0.47;;;22.30;99.40;;;;;;4972752;28;20044;-60
2023/09/25 12:00:54;;;;;;;1.97;0.90;;;22.50;99.60;;;;;;4973964;28;20046;-59
2023/09/25 12:03:20;;;;;;;2.58;0.70;;;22.50;99.00;;;;;;4975094;28;20126;-60
2023/09/25 12:05:45;;;;;;;1.25;0.50;;;22.30;98.90;;;;;;4956997;28;20121;-59
2023/09/25 12:08:12;;;;;;;0.57;0.35;;;22.20;99.00;;;;;;4974771;28;20039;-59
2023/09/25 12:10:39;;;;;;;2.42;0.75;;;22.00;99.00;;;;;;4972365;28;20506;-59
2023/09/25 12:13:09;;;;;;;2.60;0.65;;;21.80;99.30;;;;;;4973159;28;20051;-60
2023/09/25 12:15:35;;;;;;;1.67;0.63;;;21.70;99.20;;;;;;4973248;28;20863;-59
2023/09/25 12:18:03;;;;;;;1.00;0.40;;;21.70;99.60;;;;;;4972842;28;20051;-59
2023/09/25 12:20:29;;;;;;;1.65;0.88;;;21.80;99.50;;;;;;4971494;28;20051;-59
2023/09/25 12:22:56;;;;;;;3.22;0.70;;;21.90;99.40;;;;;;4973491;28;20763;-59
2023/09/25 12:25:22;;;;;;;1.45;0.55;;;21.90;99.10;;;;;;4973616;28;20045;-59
2023/09/25 12:27:48;;;;;;;2.05;0.40;;;22.00;98.80;;;;;;4975236;28;20652;-59
2023/09/25 12:30:17;;;;;;;1.98;0.50;;;22.20;99.20;;;;;;4972826;28;20050;-60
2023/09/25 12:32:45;;;;;;;0.93;0.28;;;22.40;99.10;;;;;;4972275;28;20176;-60
2023/09/25 12:35:15;;;;;;;2.10;0.70;;;22.60;98.70;;;;;;4973016;28;20427;-61
2023/09/25 12:37:45;;;;;;;1.70;0.50;;;22.60;98.50;;;;;;4972849;28;20322;-60
2023/09/25 12:40:13;;;;;;;1.73;0.60;;;22.50;98.70;;;;;;4971064;28;20572;-60
2023/09/25 12:42:42;;;;;;;2.92;0.82;;;22.50;98.70;;;;;;4972738;28;20047;-59
2023/09/25 12:45:09;;;;;;;1.83;0.88;;;22.60;98.50;;;;;;4972687;28;20099;-59
2023/09/25 12:47:35;;;;;;;1.73;0.57;;;22.70;98.30;;;;;;4972699;28;20054;-59
2023/09/25 12:50:01;;;;;;;2.08;0.50;;;22.80;98.40;;;;;;4974586;28;20667;-60
2023/09/25 12:52:27;;;;;;;1.42;0.57;;;23.00;98.10;;;;;;4973085;28;20044;-60